Time;durP1;ratioP1;P1;durP2;ratioP2;P2;SDS_P1;SDS_P2;PMS_P1;PMS_P2;Temp;Humidity;BMP_temperature;BMP_pressure;BME280_temperature;BME280_humidity;BME280_pressure;Samples;Min_cycle;Max_cycle;Signal;HPM_P1;HPM_P2
2021/06/04 00:00:22;;;;;;;12.37;6.62;;;;;;;13.34;57.00;101392.91;1689331;84;21523;-71
2021/06/04 00:02:50;;;;;;;10.10;5.37;;;;;;;13.38;56.99;101395.10;1682386;85;21047;-72
2021/06/04 00:05:18;;;;;;;11.25;5.55;;;;;;;13.40;56.98;101392.28;1686628;85;21149;-71
2021/06/04 00:07:44;;;;;;;12.95;6.00;;;;;;;13.50;56.92;101399.17;1686246;85;21055;-72
2021/06/04 00:10:16;;;;;;;14.40;6.62;;;;;;;13.61;56.82;101397.17;1686266;85;21051;-72
2021/06/04 00:12:42;;;;;;;9.23;5.75;;;;;;;13.66;56.74;101397.50;1686030;85;21031;-72
2021/06/04 00:15:13;;;;;;;11.93;7.25;;;;;;;13.70;56.68;101392.14;1686328;85;20992;-72
2021/06/04 00:17:42;;;;;;;15.43;5.53;;;;;;;13.71;56.60;101397.36;1685197;85;21118;-72
2021/06/04 00:20:15;;;;;;;13.05;6.17;;;;;;;13.78;56.51;101397.52;1686603;85;21067;-72
2021/06/04 00:22:41;;;;;;;12.30;6.37;;;;;;;13.75;56.42;101389.32;1686523;85;21153;-71
2021/06/04 00:25:08;;;;;;;13.93;7.08;;;;;;;13.74;56.38;101390.81;1686534;85;21016;-72
2021/06/04 00:27:34;;;;;;;11.78;6.92;;;;;;;13.72;56.34;101383.45;1686641;85;21019;-72
2021/06/04 00:30:00;;;;;;;11.03;6.83;;;;;;;13.75;56.29;101383.96;1686412;85;21055;-72
2021/06/04 00:32:26;;;;;;;8.93;6.37;;;;;;;13.82;56.23;101386.81;1686124;85;21055;-72
2021/06/04 00:34:53;;;;;;;11.90;6.95;;;;;;;13.81;56.15;101385.13;1686622;85;21169;-72
2021/06/04 00:37:19;;;;;;;12.25;6.15;;;;;;;13.80;56.13;101388.80;1686183;85;20996;-72
2021/06/04 00:39:45;;;;;;;10.35;6.25;;;;;;;13.80;56.12;101381.59;1686611;85;21483;-71
2021/06/04 00:42:21;;;;;;;10.25;7.08;;;;;;;13.76;56.08;101383.43;1686574;85;21519;-72
2021/06/04 00:44:50;;;;;;;10.70;6.33;;;;;;;13.73;56.08;101382.42;1686143;85;21047;-71
2021/06/04 00:47:16;;;;;;;9.80;6.90;;;;;;;13.65;56.12;101383.25;1686572;85;21575;-72
2021/06/04 00:49:42;;;;;;;11.93;6.12;;;;;;;13.63;56.14;101385.77;1686166;85;21587;-71
2021/06/04 00:52:16;;;;;;;11.57;6.20;;;;;;;13.61;56.13;101379.25;1686374;85;21008;-71
2021/06/04 00:54:42;;;;;;;8.88;6.08;;;;;;;13.62;56.14;101374.70;1686420;85;21024;-71
2021/06/04 00:57:08;;;;;;;10.28;5.92;;;;;;;13.57;56.13;101374.38;1686242;83;21011;-71
2021/06/04 00:59:37;;;;;;;12.65;5.78;;;;;;;13.53;56.16;101381.06;1691637;84;21090;-72
2021/06/04 01:02:05;;;;;;;10.00;6.30;;;;;;;13.50;56.17;101373.70;1701448;84;21429;-72
2021/06/04 01:04:31;;;;;;;11.10;6.45;;;;;;;13.54;56.19;101373.38;1701712;84;20975;-71
2021/06/04 01:07:15;;;;;;;8.00;6.03;;;;;;;13.50;56.17;101364.33;1701251;84;21038;-71
2021/06/04 01:10:26;;;;;;;8.15;5.47;;;;;;;13.49;56.18;101368.00;1701725;84;21543;-71
2021/06/04 01:13:03;;;;;;;10.32;5.87;;;;;;;13.51;56.20;101370.00;1701604;84;21790;-71
2021/06/04 01:15:49;;;;;;;11.40;6.30;;;;;;;13.66;56.18;101367.52;1701043;84;21010;-72
2021/06/04 01:18:24;;;;;;;7.97;5.40;;;;;;;13.71;56.10;101375.91;1700999;84;21054;-71
2021/06/04 01:20:56;;;;;;;9.95;5.53;;;;;;;13.73;56.05;101375.72;1701590;84;21042;-71
2021/06/04 01:24:03;;;;;;;13.18;5.67;;;;;;;13.73;56.01;101378.41;1673768;84;21014;-71
2021/06/04 01:26:40;;;;;;;19.20;6.87;;;;;;;13.70;55.97;101376.91;1701594;84;21800;-71
2021/06/04 01:29:26;;;;;;;11.10;6.17;;;;;;;13.67;55.93;101375.06;1675424;84;21491;-72
2021/06/04 01:31:59;;;;;;;10.23;6.67;;;;;;;13.63;55.90;101374.55;1700485;84;21101;-71
2021/06/04 01:34:33;;;;;;;14.60;6.22;;;;;;;13.61;55.88;101374.39;1701511;84;21051;-71
2021/06/04 01:37:06;;;;;;;8.70;5.53;;;;;;;13.55;55.90;101377.21;1700682;84;21006;-71
2021/06/04 01:39:38;;;;;;;11.12;6.67;;;;;;;13.48;55.94;101377.03;1701241;84;21981;-72
2021/06/04 01:42:06;;;;;;;8.90;6.00;;;;;;;13.47;55.95;101378.03;1701503;84;20998;-72
2021/06/04 01:44:41;;;;;;;13.38;6.75;;;;;;;13.46;55.97;101379.05;1701413;84;21507;-72
2021/06/04 01:47:10;;;;;;;10.95;5.80;;;;;;;13.45;55.98;101380.05;1701651;84;21098;-72
2021/06/04 01:49:39;;;;;;;9.93;6.97;;;;;;;13.45;55.99;101373.84;1701635;84;21074;-71
2021/06/04 01:52:15;;;;;;;11.20;6.60;;;;;;;13.49;56.00;101372.52;1701570;84;21518;-72
2021/06/04 01:54:52;;;;;;;11.70;6.65;;;;;;;13.50;55.99;101378.22;1701577;84;21078;-72
2021/06/04 01:57:25;;;;;;;13.15;6.28;;;;;;;13.53;55.98;101381.06;1701329;83;21026;-72
2021/06/04 01:59:52;;;;;;;10.60;5.22;;;;;;;13.56;55.96;101378.89;1672125;84;21066;-72
2021/06/04 02:02:21;;;;;;;13.00;7.17;;;;;;;13.59;55.94;101376.37;1701495;84;21035;-72
2021/06/04 02:04:53;;;;;;;11.83;7.22;;;;;;;13.56;55.92;101377.55;1701642;84;21202;-72
2021/06/04 02:07:29;;;;;;;12.30;7.83;;;;;;;13.53;55.90;101370.34;1701360;84;20991;-71
2021/06/04 02:09:57;;;;;;;11.25;6.95;;;;;;;13.46;55.90;101371.02;1701481;84;21105;-72
2021/06/04 02:12:23;;;;;;;10.30;6.67;;;;;;;13.44;55.94;101367.64;1701393;84;21023;-71
2021/06/04 02:15:03;;;;;;;9.68;6.67;;;;;;;13.40;55.93;101367.66;1701486;84;21045;-72
2021/06/04 02:17:34;;;;;;;8.80;6.60;;;;;;;13.36;55.94;101372.16;1700490;84;21878;-72
2021/06/04 02:20:22;;;;;;;11.10;7.03;;;;;;;13.30;55.99;101369.63;1700999;84;20999;-71
2021/06/04 02:23:06;;;;;;;13.53;7.20;;;;;;;13.26;56.01;101374.16;1684632;84;21513;-71
2021/06/04 02:25:49;;;;;;;9.45;6.70;;;;;;;13.23;56.08;101366.45;1701486;84;21083;-72
2021/06/04 02:28:39;;;;;;;10.53;6.92;;;;;;;13.21;56.10;101373.30;1701079;84;21474;-72
2021/06/04 02:31:30;;;;;;;11.75;7.65;;;;;;;13.18;56.14;101366.92;1701688;84;21258;-72
2021/06/04 02:34:17;;;;;;;12.35;7.08;;;;;;;13.18;56.16;101369.61;1701508;84;21019;-72
2021/06/04 02:36:56;;;;;;;10.25;6.80;;;;;;;13.17;56.20;101366.58;1701502;84;21058;-71
2021/06/04 02:39:30;;;;;;;12.30;6.92;;;;;;;13.15;56.22;101365.92;1701461;84;21537;-71
2021/06/04 02:42:14;;;;;;;13.15;7.42;;;;;;;13.13;56.26;101365.23;1700466;84;21542;-71
2021/06/04 02:44:46;;;;;;;10.78;6.85;;;;;;;13.13;56.29;101359.87;1700805;84;22075;-71
2021/06/04 02:47:19;;;;;;;10.90;7.08;;;;;;;13.17;56.32;101355.87;1700829;84;21027;-71
2021/06/04 02:49:46;;;;;;;9.85;5.85;;;;;;;13.25;56.33;101354.56;1695295;84;21017;-71
2021/06/04 02:52:36;;;;;;;10.53;7.53;;;;;;;13.38;56.31;101356.75;1701421;84;21081;-71
2021/06/04 02:55:10;;;;;;;8.33;6.40;;;;;;;13.46;56.28;101346.90;1701605;84;21041;-71
2021/06/04 02:57:36;;;;;;;12.10;6.83;;;;;;;13.54;56.22;101351.44;1701283;83;21612;-72
2021/06/04 03:00:11;;;;;;;12.03;7.20;;;;;;;13.61;56.19;101347.09;1696437;84;21007;-72
2021/06/04 03:02:38;;;;;;;13.22;7.28;;;;;;;13.71;56.14;101348.26;1686100;85;21067;-72
2021/06/04 03:05:10;;;;;;;12.43;7.80;;;;;;;13.74;56.07;101346.58;1686348;85;21058;-72
2021/06/04 03:07:38;;;;;;;10.88;7.20;;;;;;;13.76;56.01;101344.55;1686229;85;21520;-72
2021/06/04 03:10:30;;;;;;;11.45;7.50;;;;;;;13.75;55.99;101352.28;1686517;85;21097;-72
2021/06/04 03:12:56;;;;;;;11.15;7.45;;;;;;;13.75;55.95;101356.31;1686485;85;21007;-71
2021/06/04 03:15:31;;;;;;;10.93;6.67;;;;;;;13.78;55.96;101349.27;1686397;85;21480;-72
2021/06/04 03:17:57;;;;;;;10.63;6.35;;;;;;;13.82;55.92;101350.11;1686641;85;21032;-71
2021/06/04 03:20:28;;;;;;;10.40;6.70;;;;;;;13.84;55.87;101352.61;1686440;85;21563;-72
2021/06/04 03:22:54;;;;;;;11.43;6.83;;;;;;;13.87;55.84;101349.59;1686648;85;21275;-72
2021/06/04 03:25:29;;;;;;;9.58;6.95;;;;;;;14.01;55.93;101342.20;1686241;85;21063;-72
2021/06/04 03:27:55;;;;;;;12.33;6.67;;;;;;;14.74;56.16;101338.05;1680568;85;21055;-72
2021/06/04 03:30:24;;;;;;;14.98;7.17;;;;;;;15.51;55.85;101312.12;1686485;85;21079;-72
2021/06/04 03:32:51;;;;;;;;;;;;;;;16.48;55.39;101334.39;1689127;85;21086;-72
2021/06/04 03:35:17;;;;;;;10.98;7.20;;;;;;;17.36;54.80;101328.90;1686576;85;21095;-72
2021/06/04 03:37:43;;;;;;;9.80;6.55;;;;;;;18.05;54.26;101331.83;1686504;85;21016;-72
2021/06/04 03:40:16;;;;;;;8.45;6.35;;;;;;;18.88;53.69;101330.94;1686715;85;21028;-73
2021/06/04 03:42:42;;;;;;;9.80;7.00;;;;;;;19.66;52.93;101334.94;1686319;85;21095;-73
2021/06/04 03:45:12;;;;;;;10.55;6.85;;;;;;;20.44;52.10;101338.98;1686372;85;21571;-73
2021/06/04 03:47:38;;;;;;;12.15;6.30;;;;;;;20.84;51.22;101338.36;1686541;85;21333;-73
2021/06/04 03:50:07;;;;;;;11.40;6.62;;;;;;;21.29;50.43;101333.80;1686162;85;21019;-73
2021/06/04 03:52:33;;;;;;;13.40;6.75;;;;;;;21.62;49.56;101330.05;1686694;85;21032;-73
2021/06/04 03:54:59;;;;;;;9.50;6.42;;;;;;;21.86;48.81;101330.59;1686384;85;21003;-74
2021/06/04 03:57:29;;;;;;;14.58;6.25;;;;;;;22.24;48.10;101331.34;1686407;83;21035;-73
2021/06/04 03:59:55;;;;;;;15.38;6.10;;;;;;;22.63;47.34;101329.26;1688350;84;21188;-73
2021/06/04 04:02:23;;;;;;;10.30;6.28;;;;;;;23.05;46.55;101316.11;1700982;84;21041;-73
2021/06/04 04:04:50;;;;;;;9.10;5.90;;;;;;;23.30;45.54;101327.70;1701289;84;21018;-73
2021/06/04 04:07:16;;;;;;;9.45;5.80;;;;;;;23.38;44.78;101328.75;1701319;84;21441;-73
2021/06/04 04:09:42;;;;;;;9.38;5.65;;;;;;;23.44;44.29;101328.91;1701298;84;21085;-73
2021/06/04 04:12:09;;;;;;;10.70;5.70;;;;;;;23.42;43.48;101331.87;1701654;84;21389;-73
2021/06/04 04:14:35;;;;;;;14.70;6.42;;;;;;;23.81;42.87;101320.91;1677834;84;21043;-73
2021/06/04 04:17:01;;;;;;;27.40;6.58;;;;;;;24.01;42.29;101322.77;1672798;84;21042;-73
2021/06/04 04:19:27;;;;;;;10.00;5.37;;;;;;;23.98;41.66;101317.78;1672932;84;21616;-73
2021/06/04 04:21:55;;;;;;;10.72;5.80;;;;;;;23.91;41.03;101323.88;1673182;85;21514;-73
2021/06/04 04:24:26;;;;;;;7.05;5.75;;;;;;;23.97;40.86;101329.74;1673252;85;21581;-73
2021/06/04 04:26:52;;;;;;;9.78;5.78;;;;;;;24.28;40.21;101328.06;1672409;85;21054;-73
2021/06/04 04:29:18;;;;;;;8.43;5.60;;;;;;;24.38;39.44;101322.57;1673198;85;21495;-73
2021/06/04 04:31:54;;;;;;;8.65;5.22;;;;;;;24.02;39.23;101318.98;1673312;85;21427;-73
2021/06/04 04:34:20;;;;;;;8.63;4.85;;;;;;;23.39;39.61;101323.62;1673116;85;21069;-73
2021/06/04 04:36:49;;;;;;;25.32;6.12;;;;;;;22.89;39.79;101319.47;1673084;85;22055;-73
2021/06/04 04:39:20;;;;;;;20.50;5.97;;;;;;;22.35;39.94;101321.09;1673093;85;21033;-73
2021/06/04 04:41:47;;;;;;;11.85;5.87;;;;;;;21.86;40.09;101318.37;1671840;85;21056;-73
2021/06/04 04:44:14;;;;;;;8.70;5.45;;;;;;;22.03;40.43;101316.80;1673043;85;21014;-73
2021/06/04 04:46:40;;;;;;;13.28;5.67;;;;;;;22.38;40.42;101315.20;1673321;85;21499;-74
2021/06/04 04:49:06;;;;;;;9.73;4.70;;;;;;;22.66;40.37;101314.67;1673377;85;21596;-74
2021/06/04 04:51:33;;;;;;;8.00;4.95;;;;;;;22.90;40.24;101317.87;1673116;85;21014;-74
2021/06/04 04:53:59;;;;;;;8.65;5.20;;;;;;;23.02;40.05;101321.19;1673105;85;21070;-74
2021/06/04 04:56:25;;;;;;;8.65;4.58;;;;;;;22.82;39.84;101322.80;1673080;84;21018;-73
2021/06/04 04:58:51;;;;;;;8.60;5.08;;;;;;;22.41;39.68;101322.90;1646389;85;21041;-74
2021/06/04 05:01:18;;;;;;;6.17;4.58;;;;;;;22.39;39.76;101327.74;1673057;85;21453;-74
2021/06/04 05:03:44;;;;;;;6.12;4.40;;;;;;;22.41;39.58;101324.26;1673057;85;21018;-74
2021/06/04 05:06:10;;;;;;;14.30;4.95;;;;;;;22.63;39.50;101317.02;1673272;85;21034;-74
2021/06/04 05:08:36;;;;;;;9.43;4.90;;;;;;;22.72;39.35;101318.43;1673153;85;21523;-73
2021/06/04 05:11:03;;;;;;;7.97;4.33;;;;;;;22.77;39.18;101326.72;1673235;85;21470;-74
2021/06/04 05:13:29;;;;;;;13.30;4.78;;;;;;;22.57;38.99;101323.38;1673279;85;21617;-74
2021/06/04 05:15:55;;;;;;;10.53;5.10;;;;;;;22.68;39.10;101321.30;1673319;85;20998;-73
2021/06/04 05:18:22;;;;;;;6.03;4.42;;;;;;;22.96;38.93;101329.74;1673265;85;21090;-74
2021/06/04 05:20:48;;;;;;;5.60;4.47;;;;;;;22.92;38.78;101324.45;1673171;85;21029;-74
2021/06/04 05:23:16;;;;;;;6.78;4.97;;;;;;;22.77;38.51;101332.16;1673344;85;21612;-74
2021/06/04 05:25:45;;;;;;;10.10;4.70;;;;;;;22.79;38.61;101331.42;1672938;85;21343;-73
2021/06/04 05:28:16;;;;;;;9.73;4.83;;;;;;;22.53;38.41;101328.95;1694188;84;21051;-74
2021/06/04 05:30:44;;;;;;;8.00;4.80;;;;;;;22.51;38.52;101329.20;1702963;84;21321;-74
2021/06/04 05:33:14;;;;;;;11.65;5.70;;;;;;;22.59;38.33;101328.87;1702802;84;21094;-74
2021/06/04 05:35:40;;;;;;;17.45;5.75;;;;;;;22.15;38.23;101320.98;1703690;84;21035;-74
2021/06/04 05:38:06;;;;;;;9.63;5.62;;;;;;;22.31;38.43;101322.59;1703147;83;21768;-74
2021/06/04 05:40:37;;;;;;;8.05;5.42;;;;;;;22.62;38.60;101324.38;1702472;82;21493;-74
2021/06/04 05:43:03;;;;;;;8.33;5.05;;;;;;;23.15;38.59;101324.55;1712160;82;21018;-74
2021/06/04 05:45:32;;;;;;;8.13;4.33;;;;;;;23.23;38.33;101324.77;1712226;83;21022;-75
2021/06/04 05:47:58;;;;;;;9.30;5.45;;;;;;;23.16;38.26;101323.51;1678965;84;21067;-74
2021/06/04 05:50:28;;;;;;;10.32;4.53;;;;;;;23.52;38.46;101316.33;1724988;83;21454;-74
2021/06/04 05:52:54;;;;;;;7.10;4.72;;;;;;;24.02;38.43;101317.62;1724994;82;21090;-74
2021/06/04 05:55:24;;;;;;;8.15;5.28;;;;;;;24.29;38.26;101317.47;1724781;83;21010;-74
2021/06/04 05:57:50;;;;;;;;;;;;;;;24.24;38.10;101313.81;1727667;81;21019;-74
2021/06/04 06:00:27;;;;;;;8.78;4.75;;;;;;;24.14;38.06;101321.19;1724505;83;20195;-74
2021/06/04 06:02:54;;;;;;;8.88;4.80;;;;;;;24.18;38.09;101322.38;1703799;84;21693;-74
2021/06/04 06:05:20;;;;;;;10.65;5.28;;;;;;;24.14;38.03;101323.92;1686323;84;21015;-74
2021/06/04 06:07:46;;;;;;;8.48;5.05;;;;;;;23.83;37.93;101322.84;1702189;84;21113;-74
2021/06/04 06:10:13;;;;;;;9.83;5.25;;;;;;;23.38;37.90;101330.11;1702619;84;21610;-74
2021/06/04 06:12:39;;;;;;;12.35;4.72;;;;;;;23.55;38.07;101328.95;1702510;82;21449;-74
2021/06/04 06:15:06;;;;;;;6.55;5.33;;;;;;;23.79;37.96;101327.10;1712755;82;22289;-72
2021/06/04 06:17:32;;;;;;;9.83;5.03;;;;;;;23.95;37.99;101329.16;1703717;84;21028;-74
2021/06/04 06:19:58;;;;;;;11.25;5.87;;;;;;;24.09;37.93;101330.59;1701972;84;21022;-74
2021/06/04 06:22:24;;;;;;;6.72;4.70;;;;;;;24.17;37.90;101330.25;1703473;82;21137;-74
2021/06/04 06:24:51;;;;;;;7.62;4.78;;;;;;;24.31;37.84;101327.59;1704995;83;21041;-74
2021/06/04 06:27:18;;;;;;;8.88;4.30;;;;;;;24.14;37.54;101336.19;1750202;81;21698;-74
2021/06/04 06:29:44;;;;;;;7.92;4.40;;;;;;;24.10;37.58;101340.41;1697607;83;21527;-74
2021/06/04 06:32:12;;;;;;;6.65;4.22;;;;;;;24.33;37.51;101345.92;1727309;82;20997;-74
2021/06/04 06:34:38;;;;;;;8.48;4.28;;;;;;;24.47;37.30;101340.22;1722773;83;21066;-74
2021/06/04 06:37:05;;;;;;;7.22;4.00;;;;;;;24.57;37.23;101336.34;1712635;83;21011;-74
2021/06/04 06:39:32;;;;;;;9.15;4.60;;;;;;;24.64;37.05;101334.33;1740603;81;21722;-74
2021/06/04 06:42:00;;;;;;;8.35;4.62;;;;;;;24.73;36.95;101335.10;1728501;83;20967;-74
2021/06/04 06:44:26;;;;;;;8.65;4.85;;;;;;;24.69;36.76;101337.17;1733376;81;21018;-75
2021/06/04 06:46:53;;;;;;;6.25;4.35;;;;;;;24.82;36.73;101339.63;1728031;83;21010;-74
2021/06/04 06:49:22;;;;;;;15.90;5.10;;;;;;;24.77;36.50;101338.17;1697737;84;21034;-75
2021/06/04 06:51:48;;;;;;;;;;;;;;;24.84;36.34;101337.51;1729613;83;21723;-75
2021/06/04 06:54:18;;;;;;;15.55;4.40;;;;;;;25.19;36.26;101327.31;1727887;81;20203;-75
2021/06/04 06:56:46;;;;;;;8.08;4.70;;;;;;;25.22;36.07;101332.31;1727840;82;20999;-74
2021/06/04 06:59:12;;;;;;;5.95;3.55;;;;;;;25.32;36.01;101327.57;1729229;82;21031;-74
2021/06/04 07:01:38;;;;;;;4.15;3.70;;;;;;;25.28;36.01;101335.42;1734846;81;21006;-74
2021/06/04 07:04:04;;;;;;;9.85;4.42;;;;;;;25.39;35.91;101336.45;1732799;82;21804;-74
2021/06/04 07:06:33;;;;;;;5.25;3.83;;;;;;;25.13;35.79;101333.75;1689622;84;21028;-75
2021/06/04 07:09:00;;;;;;;5.00;3.90;;;;;;;25.01;35.77;101331.62;1704330;83;21021;-74
2021/06/04 07:11:30;;;;;;;10.25;4.62;;;;;;;24.88;35.67;101337.33;1711381;82;21010;-74
2021/06/04 07:13:56;;;;;;;;;;;;;;;24.83;35.58;101334.51;1708594;83;21026;-74
2021/06/04 07:16:22;;;;;;;7.45;4.08;;;;;;;24.70;35.57;101334.75;1707646;83;21790;-74
2021/06/04 07:18:52;;;;;;;6.33;3.60;;;;;;;24.43;35.35;101334.94;1704694;83;21082;-74
2021/06/04 07:21:21;;;;;;;7.92;3.85;;;;;;;24.08;35.40;101335.74;1708939;83;21105;-73
2021/06/04 07:23:47;;;;;;;6.85;3.70;;;;;;;24.14;35.51;101344.36;1703176;83;21042;-74
2021/06/04 07:26:13;;;;;;;9.88;4.55;;;;;;;23.96;35.35;101347.70;1732474;81;21063;-73
2021/06/04 07:28:39;;;;;;;8.73;4.03;;;;;;;23.77;35.31;101341.50;1729768;81;21549;-73
2021/06/04 07:31:09;;;;;;;4.75;3.65;;;;;;;23.63;35.39;101341.41;1705131;83;21012;-73
2021/06/04 07:33:40;;;;;;;5.00;4.00;;;;;;;23.74;35.58;101333.27;1720461;83;21098;-73
2021/06/04 07:36:10;;;;;;;6.85;3.70;;;;;;;23.65;35.58;101333.30;1719610;82;21452;-73
2021/06/04 07:38:36;;;;;;;7.05;3.25;;;;;;;23.53;35.58;101334.34;1738822;81;21020;-73
2021/06/04 07:41:04;;;;;;;10.13;4.33;;;;;;;23.55;35.75;101336.28;1703212;83;21242;-73
2021/06/04 07:43:31;;;;;;;6.55;3.22;;;;;;;23.73;35.88;101327.52;1730970;82;20946;-73
2021/06/04 07:45:58;;;;;;;8.48;4.25;;;;;;;24.09;35.95;101331.96;1734054;81;21030;-73
2021/06/04 07:48:24;;;;;;;8.28;3.62;;;;;;;24.14;35.92;101334.82;1740325;81;21506;-73
2021/06/04 07:50:53;;;;;;;8.10;3.65;;;;;;;24.26;35.86;101338.39;1740278;81;21494;-73
2021/06/04 07:53:24;;;;;;;7.58;3.67;;;;;;;24.14;35.87;101343.53;1739121;81;21625;-73
2021/06/04 07:55:50;;;;;;;13.75;3.98;;;;;;;24.00;35.84;101338.80;1699047;82;21571;-73
2021/06/04 07:58:16;;;;;;;6.83;4.10;;;;;;;24.32;36.00;101342.89;1717215;83;21004;-73
2021/06/04 08:00:42;;;;;;;10.58;4.15;;;;;;;24.48;35.91;101343.25;1700729;83;21003;-73
2021/06/04 08:03:09;;;;;;;5.72;4.17;;;;;;;24.60;35.83;101338.59;1707539;83;21521;-73
2021/06/04 08:05:36;;;;;;;6.00;4.12;;;;;;;24.60;35.81;101335.87;1734881;82;22278;-73
2021/06/04 08:08:06;;;;;;;10.58;3.87;;;;;;;24.62;35.79;101333.75;1726951;81;21083;-73
2021/06/04 08:10:38;;;;;;;5.28;4.05;;;;;;;24.63;35.71;101335.41;1739454;81;21006;-72
2021/06/04 08:13:05;;;;;;;6.92;3.95;;;;;;;24.73;35.70;101323.35;1708927;83;21407;-73
2021/06/04 08:15:37;;;;;;;6.30;3.60;;;;;;;24.93;35.70;101325.16;1741275;81;21017;-72
2021/06/04 08:18:04;;;;;;;7.08;3.70;;;;;;;25.24;35.71;101326.06;1724363;82;21679;-73
2021/06/04 08:20:33;;;;;;;9.95;4.00;;;;;;;25.48;35.54;101325.41;1715026;83;21052;-72
2021/06/04 08:23:03;;;;;;;7.62;3.67;;;;;;;25.72;35.51;101326.16;1720925;82;21018;-72
2021/06/04 08:25:34;;;;;;;7.22;3.62;;;;;;;25.94;35.26;101322.95;1743070;81;21056;-73
2021/06/04 08:28:00;;;;;;;5.78;3.35;;;;;;;26.20;35.15;101322.31;1699521;82;21089;-73
2021/06/04 08:30:27;;;;;;;7.00;3.60;;;;;;;26.04;34.83;101330.48;1738741;81;50212;-73
2021/06/04 08:32:54;;;;;;;7.97;3.75;;;;;;;25.44;34.31;101323.43;1741395;81;21091;-72
2021/06/04 08:35:21;;;;;;;10.53;3.20;;;;;;;25.24;34.31;101330.16;1737879;81;21020;-73
2021/06/04 08:37:47;;;;;;;6.12;3.65;;;;;;;25.02;34.15;101326.42;1741009;81;21084;-73
2021/06/04 08:40:20;;;;;;;6.45;3.20;;;;;;;25.28;34.32;101329.13;1740763;81;21006;-73
2021/06/04 08:43:13;;;;;;;8.33;3.10;;;;;;;25.35;34.08;101334.73;1739943;81;22386;-72
2021/06/04 08:46:14;;;;;;;6.33;3.25;;;;;;;25.54;34.19;101333.20;1749411;81;21007;-72
2021/06/04 08:48:50;;;;;;;7.75;3.17;;;;;;;25.96;34.14;101335.85;1744258;81;21106;-72
2021/06/04 08:51:25;;;;;;;9.08;3.60;;;;;;;25.78;33.74;101325.16;1740441;81;21158;-72
2021/06/04 08:54:12;;;;;;;6.83;3.27;;;;;;;25.64;33.84;101327.38;1741236;81;20933;-71
2021/06/04 08:57:15;;;;;;;7.33;3.75;;;;;;;25.77;33.96;101341.25;1744850;81;21814;-72
2021/06/04 08:59:41;;;;;;;7.58;3.10;;;;;;;25.82;34.00;101335.36;1747114;81;21063;-72
2021/06/04 09:02:11;;;;;;;11.88;3.52;;;;;;;25.96;34.06;101324.91;1741058;81;21040;-72
2021/06/04 09:04:55;;;;;;;6.97;3.70;;;;;;;26.19;34.00;101332.96;1735031;81;21055;-72
2021/06/04 09:07:25;;;;;;;19.90;5.15;;;;;;;26.15;33.96;101329.03;1741812;81;21032;-72
2021/06/04 09:10:11;;;;;;;7.65;3.40;;;;;;;26.46;34.09;101322.69;1727376;81;21840;-72
2021/06/04 09:12:46;;;;;;;9.75;4.30;;;;;;;26.73;34.03;101319.50;1705681;83;21070;-72
2021/06/04 09:15:14;;;;;;;8.25;3.50;;;;;;;26.67;33.96;101321.89;1710655;83;21004;-73
2021/06/04 09:18:08;;;;;;;5.70;3.65;;;;;;;26.60;33.89;101317.14;1717794;83;21044;-72
2021/06/04 09:20:54;;;;;;;4.55;3.47;;;;;;;26.53;33.89;101304.98;1722004;82;21487;-72
2021/06/04 09:23:31;;;;;;;6.20;3.35;;;;;;;26.41;33.98;101299.36;1732461;82;21750;-72
2021/06/04 09:25:57;;;;;;;9.18;3.70;;;;;;;26.58;34.06;101308.34;1719147;83;21103;-72
2021/06/04 09:28:28;;;;;;;7.78;3.60;;;;;;;26.33;33.82;101297.34;1714849;82;21061;-72
2021/06/04 09:31:23;;;;;;;7.10;3.58;;;;;;;25.93;33.67;101302.15;1740367;81;21032;-72
2021/06/04 09:33:56;;;;;;;4.85;3.45;;;;;;;25.88;33.83;101308.09;1736920;81;21556;-72
2021/06/04 09:36:43;;;;;;;6.28;3.40;;;;;;;25.67;33.86;101309.66;1725907;82;21788;-73
2021/06/04 09:39:25;;;;;;;6.70;3.87;;;;;;;25.67;33.91;101306.92;1710843;83;21976;-72
2021/06/04 09:41:52;;;;;;;6.83;3.80;;;;;;;25.96;34.05;101309.05;1691072;83;21014;-72
2021/06/04 09:44:23;;;;;;;13.28;3.67;;;;;;;26.47;34.06;101305.17;1711460;83;21073;-72
2021/06/04 09:46:55;;;;;;;5.78;3.67;;;;;;;26.93;33.99;101311.56;1717621;83;21105;-72
2021/06/04 09:49:44;;;;;;;6.30;3.72;;;;;;;27.09;33.78;101312.01;1710235;83;22548;-72
2021/06/04 09:52:24;;;;;;;8.28;3.08;;;;;;;27.34;33.77;101315.56;1714399;83;21022;-72
2021/06/04 09:55:21;;;;;;;4.97;4.15;;;;;;;27.54;33.56;101320.47;1704359;83;21556;-72
2021/06/04 09:58:20;;;;;;;6.15;3.08;;;;;;;27.69;33.22;101312.39;1738586;81;21004;-72
2021/06/04 10:00:54;;;;;;;4.28;3.52;;;;;;;27.59;32.96;101306.80;1720356;82;21507;-72
2021/06/04 10:03:38;;;;;;;5.55;2.90;;;;;;;27.31;32.81;101307.87;1710419;83;22792;-72
2021/06/04 10:06:25;;;;;;;3.65;2.95;;;;;;;27.07;32.42;101308.72;1727962;82;21025;-72
2021/06/04 10:09:25;;;;;;;4.75;2.85;;;;;;;26.46;32.19;101302.97;1747105;81;21311;-71
2021/06/04 10:12:01;;;;;;;7.00;2.92;;;;;;;26.20;32.05;101307.28;1707065;83;21508;-71
2021/06/04 10:14:54;;;;;;;5.50;3.50;;;;;;;25.92;31.90;101303.25;1742357;81;21056;-72
2021/06/04 10:17:44;;;;;;;6.17;3.30;;;;;;;25.91;32.05;101296.12;1738928;81;21523;-72
2021/06/04 10:20:45;;;;;;;5.15;3.45;;;;;;;26.14;32.13;101300.02;1740025;81;21005;-72
2021/06/04 10:23:18;;;;;;;7.22;3.62;;;;;;;26.19;32.14;101305.61;1739938;81;20928;-71
2021/06/04 10:25:57;;;;;;;16.07;4.28;;;;;;;26.22;32.20;101307.84;1731954;81;21129;-72
2021/06/04 10:28:41;;;;;;;;;;;;;;;26.20;32.20;101311.37;1708426;82;21040;-72
2021/06/04 10:31:22;;;;;;;6.20;2.75;;;;;;;26.13;32.26;101306.59;1726914;83;22440;-72
2021/06/04 10:34:00;;;;;;;3.47;2.60;;;;;;;26.11;32.31;101305.16;1727129;83;20979;-72
2021/06/04 10:36:30;;;;;;;5.20;3.00;;;;;;;25.75;32.15;101299.69;1726661;83;21010;-72
2021/06/04 10:39:01;;;;;;;7.90;3.20;;;;;;;25.51;32.20;101305.02;1726877;83;21143;-72
2021/06/04 10:41:35;;;;;;;5.75;3.22;;;;;;;25.41;32.32;101303.41;1726837;83;21018;-72
2021/06/04 10:44:26;;;;;;;7.28;3.20;;;;;;;25.41;32.47;101308.34;1726215;83;21952;-72
2021/06/04 10:47:03;;;;;;;7.42;3.12;;;;;;;25.31;32.54;101302.69;1726410;83;21007;-72
2021/06/04 10:49:49;;;;;;;8.60;3.90;;;;;;;25.29;32.71;101307.05;1726438;83;21451;-72
2021/06/04 10:52:43;;;;;;;7.03;3.45;;;;;;;25.33;32.83;101304.66;1725938;83;21022;-72
2021/06/04 10:55:31;;;;;;;12.20;4.33;;;;;;;25.31;32.92;101314.45;1726198;83;20994;-72
2021/06/04 10:58:03;;;;;;;6.17;3.27;;;;;;;25.26;33.05;101307.52;1726918;83;21566;-72
2021/06/04 11:00:45;;;;;;;9.08;3.42;;;;;;;25.21;33.13;101312.89;1726856;83;21030;-72
2021/06/04 11:03:33;;;;;;;6.12;3.25;;;;;;;25.10;33.21;101311.57;1725272;83;21014;-72
2021/06/04 11:06:27;;;;;;;7.47;3.10;;;;;;;24.98;33.28;101312.16;1726659;83;21006;-71
2021/06/04 11:09:05;;;;;;;10.60;3.40;;;;;;;24.75;33.28;101308.39;1727014;83;21010;-71
2021/06/04 11:11:59;;;;;;;5.15;3.20;;;;;;;24.54;33.40;101306.83;1726836;83;21501;-72
2021/06/04 11:14:59;;;;;;;8.80;3.60;;;;;;;24.38;33.52;101306.20;1726899;83;21034;-72
2021/06/04 11:17:43;;;;;;;6.37;2.98;;;;;;;24.27;33.70;101304.62;1696809;83;21038;-71
2021/06/04 11:20:17;;;;;;;8.73;3.62;;;;;;;24.17;33.89;101304.36;1726951;83;21007;-72
2021/06/04 11:22:51;;;;;;;4.03;2.75;;;;;;;24.08;33.98;101310.38;1726534;83;21058;-71
2021/06/04 11:25:41;;;;;;;5.55;2.80;;;;;;;23.98;34.07;101304.69;1697273;83;21421;-72
2021/06/04 11:28:31;;;;;;;;;;;;;;;23.89;34.22;101310.48;1721623;83;21550;-72
2021/06/04 11:31:00;;;;;;;10.80;3.58;;;;;;;23.85;34.39;101313.93;1719359;81;20170;-72
2021/06/04 11:33:32;;;;;;;7.83;4.37;;;;;;;23.79;34.55;101304.78;1728741;83;21546;-72
2021/06/04 11:36:09;;;;;;;11.25;3.30;;;;;;;23.73;34.64;101296.72;1726141;83;20953;-71
2021/06/04 11:38:50;;;;;;;6.67;3.00;;;;;;;23.65;34.85;101295.69;1721277;82;21427;-72
2021/06/04 11:41:29;;;;;;;8.43;3.30;;;;;;;23.56;35.04;101289.77;1701615;83;20990;-72
2021/06/04 11:44:14;;;;;;;;;;;;;;;23.48;35.18;101287.89;1729147;83;21510;-72
2021/06/04 11:46:40;;;;;;;8.68;4.20;;;;;;;23.40;35.36;101288.50;1711394;83;20191;-72
2021/06/04 11:49:14;;;;;;;7.58;3.25;;;;;;;23.32;35.58;101294.83;1726972;83;21031;-72